Time;durP1;ratioP1;P1;durP2;ratioP2;P2;SDS_P1;SDS_P2;PMS_P1;PMS_P2;Temp;Humidity;BMP_temperature;BMP_pressure;BME280_temperature;BME280_humidity;BME280_pressure;Samples;Min_cycle;Max_cycle;Signal;HPM_P1;HPM_P2
2022/08/24 00:00:13;;;;;;;14.35;12.82;;;;;;;;;;4998092;28;93993;-73
2022/08/24 00:02:40;;;;;;;20.73;13.55;;;;;;;;;;4997602;28;94181;-73
2022/08/24 00:05:07;;;;;;;20.30;13.15;;;;;;;;;;4999860;28;93406;-73
2022/08/24 00:07:39;;;;;;;16.95;13.50;;;;;;;;;;4997510;28;93734;-73
2022/08/24 00:10:07;;;;;;;26.05;13.80;;;;;;;;;;4993739;28;91711;-73
2022/08/24 00:12:33;;;;;;;15.32;13.65;;;;;;;;;;5006429;28;93304;-73
2022/08/24 00:14:59;;;;;;;15.75;13.75;;;;;;;;;;4991533;28;93228;-72
2022/08/24 00:17:26;;;;;;;14.75;12.43;;;;;;;;;;4991275;28;94868;-72
2022/08/24 00:19:53;;;;;;;14.90;12.48;;;;;;;;;;4994744;28;95889;-73
2022/08/24 00:22:19;;;;;;;17.80;12.68;;;;;;;;;;4993323;28;94212;-73
2022/08/24 00:24:46;;;;;;;14.90;13.43;;;;;;;;;;4994888;28;92475;-73
2022/08/24 00:27:12;;;;;;;23.55;14.80;;;;;;;;;;5012111;28;94456;-72
2022/08/24 00:29:38;;;;;;;16.85;14.30;;;;;;;;;;4993192;28;92691;-73
2022/08/24 00:32:05;;;;;;;18.30;15.07;;;;;;;;;;4994321;28;92994;-73
2022/08/24 00:34:33;;;;;;;20.73;14.48;;;;;;;;;;4993175;28;92555;-72
2022/08/24 00:36:59;;;;;;;21.52;16.70;;;;;;;;;;4996459;28;92963;-72
2022/08/24 00:39:25;;;;;;;21.45;16.45;;;;;;;;;;4999189;28;92863;-72
2022/08/24 00:41:52;;;;;;;19.08;15.95;;;;;;;;;;4987575;28;97686;-73
2022/08/24 00:44:19;;;;;;;17.45;14.32;;;;;;;;;;5000520;28;92427;-72
2022/08/24 00:46:57;;;;;;;18.77;14.00;;;;;;;;;;4999798;28;93079;-72
2022/08/24 00:49:28;;;;;;;15.82;13.32;;;;;;;;;;4995067;28;92512;-72
2022/08/24 00:52:02;;;;;;;14.77;13.55;;;;;;;;;;5004351;28;94039;-72
2022/08/24 00:54:30;;;;;;;16.05;14.13;;;;;;;;;;4994819;28;94141;-73
2022/08/24 00:56:58;;;;;;;16.58;14.55;;;;;;;;;;5002039;28;93527;-72
2022/08/24 00:59:30;;;;;;;19.27;12.93;;;;;;;;;;4996230;28;93065;-72
2022/08/24 01:02:01;;;;;;;18.40;13.25;;;;;;;;;;4990263;28;93369;-73
2022/08/24 01:04:44;;;;;;;14.32;12.85;;;;;;;;;;4993873;28;92600;-73
2022/08/24 01:07:11;;;;;;;15.32;13.75;;;;;;;;;;4995432;28;95996;-72
2022/08/24 01:09:37;;;;;;;14.32;12.85;;;;;;;;;;5002645;28;95508;-72
2022/08/24 01:12:04;;;;;;;12.98;11.73;;;;;;;;;;5004560;28;93167;-72
2022/08/24 01:14:31;;;;;;;14.85;12.73;;;;;;;;;;4995741;28;93258;-73
2022/08/24 01:19:50;;;;;;;14.13;12.70;;;;;;;;;;4994198;28;95218;-72
2022/08/24 01:22:24;;;;;;;19.80;14.18;;;;;;;;;;4996101;28;93176;-72
2022/08/24 01:24:51;;;;;;;14.52;13.02;;;;;;;;;;4999001;28;91855;-72
2022/08/24 01:27:18;;;;;;;17.38;14.05;;;;;;;;;;5001361;28;94096;-72
2022/08/24 01:29:53;;;;;;;15.90;14.20;;;;;;;;;;4999508;28;92978;-72
2022/08/24 01:32:23;;;;;;;15.13;13.05;;;;;;;;;;4993396;28;94878;-72
2022/08/24 01:34:50;;;;;;;14.65;13.18;;;;;;;;;;4993911;28;95819;-73
2022/08/24 01:37:16;;;;;;;13.70;12.25;;;;;;;;;;4994725;28;92854;-72
2022/08/24 01:39:44;;;;;;;17.25;12.38;;;;;;;;;;4992784;28;95437;-72
2022/08/24 01:42:13;;;;;;;13.05;11.60;;;;;;;;;;4994785;28;93236;-72
2022/08/24 01:44:42;;;;;;;13.98;12.00;;;;;;;;;;4995233;28;93756;-73
2022/08/24 01:47:09;;;;;;;14.93;12.30;;;;;;;;;;4992991;28;94486;-72
2022/08/24 01:49:38;;;;;;;12.40;11.40;;;;;;;;;;4994181;28;93376;-73
2022/08/24 01:52:05;;;;;;;14.00;11.90;;;;;;;;;;5009542;28;92532;-73
2022/08/24 01:54:32;;;;;;;12.77;11.50;;;;;;;;;;5039719;27;94289;-73
2022/08/24 01:56:59;;;;;;;12.55;11.32;;;;;;;;;;4992565;28;94852;-72
2022/08/24 01:59:28;;;;;;;13.10;10.57;;;;;;;;;;4993252;28;97748;-72
2022/08/24 02:01:56;;;;;;;12.00;10.93;;;;;;;;;;4995976;28;95547;-72
2022/08/24 02:04:23;;;;;;;13.52;11.38;;;;;;;;;;5000291;28;92655;-72
2022/08/24 02:06:53;;;;;;;13.10;10.20;;;;;;;;;;4998128;28;93969;-72
2022/08/24 02:09:19;;;;;;;11.38;10.25;;;;;;;;;;4993383;28;96065;-72
2022/08/24 02:11:47;;;;;;;14.75;11.05;;;;;;;;;;4994081;28;92796;-72
2022/08/24 02:14:13;;;;;;;14.80;11.57;;;;;;;;;;4996156;28;95555;-72
2022/08/24 02:16:40;;;;;;;13.88;11.30;;;;;;;;;;4994460;28;92646;-72
2022/08/24 02:19:07;;;;;;;12.18;10.98;;;;;;;;;;4996146;28;95071;-73
2022/08/24 02:21:34;;;;;;;12.52;11.35;;;;;;;;;;4993411;28;95653;-73
2022/08/24 02:24:00;;;;;;;14.75;11.48;;;;;;;;;;4995324;28;92440;-72
2022/08/24 02:26:27;;;;;;;12.38;11.20;;;;;;;;;;4993217;28;95120;-72
2022/08/24 02:28:57;;;;;;;12.82;11.60;;;;;;;;;;4991107;28;95005;-73
2022/08/24 02:31:29;;;;;;;16.98;12.55;;;;;;;;;;4995082;28;92467;-72
2022/08/24 02:33:56;;;;;;;13.57;11.77;;;;;;;;;;4992782;28;93857;-72
2022/08/24 02:36:23;;;;;;;15.65;11.88;;;;;;;;;;4997964;28;93425;-73
2022/08/24 02:38:53;;;;;;;13.50;12.10;;;;;;;;;;4999252;28;95315;-73
2022/08/24 02:41:21;;;;;;;13.02;11.48;;;;;;;;;;4992098;28;93172;-72
2022/08/24 02:43:48;;;;;;;20.95;12.65;;;;;;;;;;4993204;28;93484;-73
2022/08/24 02:46:18;;;;;;;16.40;13.80;;;;;;;;;;4993925;28;94760;-72
2022/08/24 02:48:45;;;;;;;17.27;15.48;;;;;;;;;;4990978;28;94419;-73
2022/08/24 02:51:22;;;;;;;16.77;15.07;;;;;;;;;;4996487;28;93141;-73
2022/08/24 02:53:52;;;;;;;15.15;13.45;;;;;;;;;;4986615;28;95116;-72
2022/08/24 02:56:20;;;;;;;14.57;13.13;;;;;;;;;;4992818;28;95111;-72
2022/08/24 02:58:47;;;;;;;13.15;11.95;;;;;;;;;;4994725;28;92666;-73
2022/08/24 03:01:18;;;;;;;15.27;12.35;;;;;;;;;;4991796;28;94807;-73
2022/08/24 03:03:56;;;;;;;16.38;13.98;;;;;;;;;;4992410;28;92031;-72
2022/08/24 03:06:23;;;;;;;15.65;14.05;;;;;;;;;;4992240;28;92878;-73
2022/08/24 03:08:49;;;;;;;14.25;12.93;;;;;;;;;;4996265;28;95720;-73
2022/08/24 03:11:22;;;;;;;16.02;14.48;;;;;;;;;;4991207;28;94928;-73
2022/08/24 03:13:54;;;;;;;18.80;16.67;;;;;;;;;;4993319;28;98337;-72
2022/08/24 03:16:20;;;;;;;16.77;14.93;;;;;;;;;;4992479;28;94201;-72
2022/08/24 03:18:47;;;;;;;15.60;14.10;;;;;;;;;;4997085;28;93021;-72
2022/08/24 03:21:15;;;;;;;19.88;13.40;;;;;;;;;;4995663;28;95485;-72
2022/08/24 03:23:42;;;;;;;18.75;13.70;;;;;;;;;;4998296;28;93953;-72
2022/08/24 03:26:10;;;;;;;14.80;13.25;;;;;;;;;;4996254;28;93942;-72
2022/08/24 03:28:36;;;;;;;20.13;13.70;;;;;;;;;;5012409;28;92584;-72
2022/08/24 03:31:03;;;;;;;20.70;14.25;;;;;;;;;;4992253;28;92528;-72
2022/08/24 03:33:29;;;;;;;15.57;14.00;;;;;;;;;;4988419;28;93165;-72
2022/08/24 03:35:56;;;;;;;16.90;15.07;;;;;;;;;;4990732;28;96795;-73
2022/08/24 03:38:23;;;;;;;17.00;14.10;;;;;;;;;;4992004;28;92986;-73
2022/08/24 03:40:50;;;;;;;16.02;13.07;;;;;;;;;;4996193;28;95390;-73
2022/08/24 03:46:04;;;;;;;13.68;12.27;;;;;;;;;;4986837;28;93862;-72
2022/08/24 03:48:30;;;;;;;17.08;13.25;;;;;;;;;;4994488;28;94074;-73
2022/08/24 03:50:57;;;;;;;16.23;13.50;;;;;;;;;;4993598;28;92460;-73
2022/08/24 03:53:23;;;;;;;16.45;13.45;;;;;;;;;;4993387;28;93140;-73
2022/08/24 03:55:51;;;;;;;16.00;13.85;;;;;;;;;;4991523;28;93239;-72
2022/08/24 03:58:17;;;;;;;17.50;15.70;;;;;;;;;;4994790;28;92421;-73
2022/08/24 04:00:44;;;;;;;16.20;14.50;;;;;;;;;;4996628;28;95431;-72
2022/08/24 04:03:13;;;;;;;19.23;17.10;;;;;;;;;;4994543;28;93214;-73
2022/08/24 04:05:41;;;;;;;18.95;17.10;;;;;;;;;;4992635;28;92938;-72
2022/08/24 04:08:07;;;;;;;19.13;17.17;;;;;;;;;;4993090;28;94890;-72
2022/08/24 04:10:35;;;;;;;18.33;16.42;;;;;;;;;;4992067;28;93558;-72
2022/08/24 04:13:02;;;;;;;19.90;16.48;;;;;;;;;;4990921;28;96050;-72
2022/08/24 04:15:30;;;;;;;22.15;17.35;;;;;;;;;;4992930;28;95236;-72
2022/08/24 04:17:56;;;;;;;19.88;15.85;;;;;;;;;;4993144;28;91707;-72
2022/08/24 04:20:24;;;;;;;18.13;15.48;;;;;;;;;;4994290;28;94376;-72
2022/08/24 04:22:51;;;;;;;17.00;15.07;;;;;;;;;;4996296;28;93115;-72
2022/08/24 04:25:20;;;;;;;20.05;15.00;;;;;;;;;;5001239;28;95363;-72
2022/08/24 04:27:50;;;;;;;20.88;15.90;;;;;;;;;;5006537;28;95021;-72
2022/08/24 04:30:17;;;;;;;18.95;16.90;;;;;;;;;;5034519;27;92512;-72
2022/08/24 04:33:02;;;;;;;17.23;15.32;;;;;;;;;;4996647;28;95007;-72
2022/08/24 04:35:29;;;;;;;18.60;16.65;;;;;;;;;;4993746;28;93232;-72
2022/08/24 04:37:56;;;;;;;22.35;18.40;;;;;;;;;;4994521;28;92818;-72
2022/08/24 04:40:23;;;;;;;18.08;16.35;;;;;;;;;;5000718;28;94454;-72
2022/08/24 04:42:50;;;;;;;17.10;15.27;;;;;;;;;;4994362;28;94511;-72
2022/08/24 04:45:18;;;;;;;20.92;15.40;;;;;;;;;;4996108;28;92530;-72
2022/08/24 04:47:44;;;;;;;18.75;14.88;;;;;;;;;;4998848;28;92572;-72
2022/08/24 04:50:11;;;;;;;17.17;15.48;;;;;;;;;;4993910;28;95404;-72
2022/08/24 04:52:38;;;;;;;21.42;15.80;;;;;;;;;;4998383;28;95593;-72
2022/08/24 04:55:05;;;;;;;20.17;16.50;;;;;;;;;;4994927;28;94148;-72
2022/08/24 04:57:33;;;;;;;19.42;16.85;;;;;;;;;;5005373;28;92473;-72
2022/08/24 04:59:59;;;;;;;18.67;16.75;;;;;;;;;;5002127;28;95556;-72
2022/08/24 05:02:26;;;;;;;25.83;17.17;;;;;;;;;;4994873;28;92960;-72
2022/08/24 05:04:55;;;;;;;13.93;12.55;;;;;;;;;;4992001;28;94045;-71
2022/08/24 05:07:22;;;;;;;22.75;17.38;;;;;;;;;;5020119;28;94211;-71
2022/08/24 05:09:48;;;;;;;20.40;18.23;;;;;;;;;;4999971;28;96171;-70
2022/08/24 05:12:19;;;;;;;22.40;16.67;;;;;;;;;;4996075;28;94349;-71
2022/08/24 05:14:54;;;;;;;18.90;16.88;;;;;;;;;;4992242;28;97351;-71
2022/08/24 05:17:21;;;;;;;20.00;17.05;;;;;;;;;;4993250;28;93018;-70
2022/08/24 05:19:49;;;;;;;18.20;16.20;;;;;;;;;;4983127;28;94595;-71
2022/08/24 05:22:15;;;;;;;19.25;16.00;;;;;;;;;;4999427;28;95997;-71
2022/08/24 05:24:46;;;;;;;18.52;15.88;;;;;;;;;;5011822;27;94360;-71
2022/08/24 05:27:12;;;;;;;20.73;15.75;;;;;;;;;;5001247;28;95407;-70
2022/08/24 05:29:39;;;;;;;18.65;16.33;;;;;;;;;;4997170;28;94017;-69
2022/08/24 05:32:08;;;;;;;15.63;14.02;;;;;;;;;;4992510;28;91807;-69
2022/08/24 05:34:35;;;;;;;19.13;15.50;;;;;;;;;;4988168;28;94241;-69
2022/08/24 05:37:01;;;;;;;18.60;16.52;;;;;;;;;;4992407;28;92551;-69
2022/08/24 05:39:40;;;;;;;18.33;16.60;;;;;;;;;;5008789;28;94914;-69
2022/08/24 05:42:07;;;;;;;18.50;16.48;;;;;;;;;;4990353;28;94194;-70
2022/08/24 05:44:40;;;;;;;18.63;16.38;;;;;;;;;;5013258;27;93815;-69
2022/08/24 05:47:06;;;;;;;17.67;15.68;;;;;;;;;;4989709;28;93482;-70
2022/08/24 05:49:33;;;;;;;18.58;16.10;;;;;;;;;;5011930;27;96156;-70
2022/08/24 05:52:04;;;;;;;20.60;15.85;;;;;;;;;;5026644;27;93260;-69
2022/08/24 05:54:31;;;;;;;19.05;17.05;;;;;;;;;;4980045;28;94148;-71
2022/08/24 05:57:03;;;;;;;21.88;17.58;;;;;;;;;;4992563;28;92707;-70
2022/08/24 05:59:36;;;;;;;20.38;18.30;;;;;;;;;;5025846;27;93495;-70
2022/08/24 06:02:08;;;;;;;24.23;20.33;;;;;;;;;;5029263;27;95199;-70
2022/08/24 06:04:36;;;;;;;27.70;21.00;;;;;;;;;;4986284;28;95046;-68
2022/08/24 06:07:04;;;;;;;31.65;25.50;;;;;;;;;;4990929;28;97881;-70
2022/08/24 06:09:32;;;;;;;31.77;24.15;;;;;;;;;;5011049;27;95179;-70
2022/08/24 06:11:59;;;;;;;42.47;24.92;;;;;;;;;;4990727;28;92980;-70
2022/08/24 06:14:25;;;;;;;28.20;24.33;;;;;;;;;;4990495;28;95886;-70
2022/08/24 06:16:56;;;;;;;27.63;24.73;;;;;;;;;;4991212;28;92507;-70
2022/08/24 06:19:23;;;;;;;27.65;23.83;;;;;;;;;;4995127;28;95143;-70
2022/08/24 06:21:51;;;;;;;42.00;25.02;;;;;;;;;;5013932;27;92444;-70
2022/08/24 06:27:20;;;;;;;32.13;24.65;;;;;;;;;;5009748;28;92486;-71
2022/08/24 06:27:21;;;;;;;32.40;23.52;;;;;;;;;;4986693;28;95369;-70
2022/08/24 06:29:52;;;;;;;91.05;29.65;;;;;;;;;;4988017;28;96605;-71
2022/08/24 06:32:38;;;;;;;71.28;26.77;;;;;;;;;;4987415;28;92458;-71
2022/08/24 06:35:06;;;;;;;38.47;23.63;;;;;;;;;;4995768;28;92922;-71
2022/08/24 06:37:37;;;;;;;35.60;23.33;;;;;;;;;;4997133;28;95728;-71
2022/08/24 06:40:04;;;;;;;23.33;20.67;;;;;;;;;;4996228;28;93295;-71
2022/08/24 06:42:33;;;;;;;25.83;21.55;;;;;;;;;;4989401;28;95382;-71
2022/08/24 06:44:59;;;;;;;25.92;23.13;;;;;;;;;;4999123;28;92515;-72
2022/08/24 06:47:25;;;;;;;31.10;23.27;;;;;;;;;;4995948;28;95678;-71
2022/08/24 06:49:58;;;;;;;29.00;22.15;;;;;;;;;;5020675;27;95128;-71
2022/08/24 06:52:27;;;;;;;27.13;22.95;;;;;;;;;;4992201;28;94351;-72
2022/08/24 06:54:54;;;;;;;23.60;21.08;;;;;;;;;;4994882;28;95253;-72
2022/08/24 06:57:21;;;;;;;26.35;22.67;;;;;;;;;;4990051;28;92472;-72
2022/08/24 06:59:47;;;;;;;32.65;23.23;;;;;;;;;;5023373;27;92397;-73
2022/08/24 07:02:17;;;;;;;25.40;20.35;;;;;;;;;;4984862;28;95420;-72
2022/08/24 07:04:44;;;;;;;30.63;22.67;;;;;;;;;;4987627;28;92610;-73
2022/08/24 07:07:29;;;;;;;27.77;21.42;;;;;;;;;;4991237;28;92517;-72
2022/08/24 07:09:56;;;;;;;32.28;22.55;;;;;;;;;;4991430;28;95821;-72
2022/08/24 07:12:22;;;;;;;23.60;20.65;;;;;;;;;;4994330;28;91759;-72
2022/08/24 07:14:50;;;;;;;22.85;20.55;;;;;;;;;;4990957;28;94817;-72
2022/08/24 07:17:17;;;;;;;26.10;19.55;;;;;;;;;;4984052;28;93221;-72
2022/08/24 07:19:46;;;;;;;26.25;21.95;;;;;;;;;;4998295;28;95130;-72
2022/08/24 07:22:23;;;;;;;27.75;22.70;;;;;;;;;;4995755;28;96556;-72
2022/08/24 07:24:50;;;;;;;25.77;21.92;;;;;;;;;;4987276;28;92483;-72
2022/08/24 07:27:17;;;;;;;24.55;21.73;;;;;;;;;;4991122;28;95329;-72
2022/08/24 07:29:43;;;;;;;24.17;17.70;;;;;;;;;;4985145;28;94541;-72
2022/08/24 07:32:22;;;;;;;22.65;19.92;;;;;;;;;;4992442;28;93471;-72
2022/08/24 07:34:50;;;;;;;22.52;20.23;;;;;;;;;;4992304;28;93588;-72
2022/08/24 07:37:16;;;;;;;26.23;20.95;;;;;;;;;;4992199;28;95026;-72
2022/08/24 07:39:46;;;;;;;18.85;17.00;;;;;;;;;;4985815;28;92608;-72
2022/08/24 07:42:14;;;;;;;24.73;16.30;;;;;;;;;;4994976;28;92727;-72
2022/08/24 07:44:52;;;;;;;24.45;19.42;;;;;;;;;;5021536;27;95260;-72
2022/08/24 07:47:20;;;;;;;27.77;20.23;;;;;;;;;;5024740;27;97863;-72
2022/08/24 07:50:13;;;;;;;24.88;19.00;;;;;;;;;;4989657;28;95384;-72
2022/08/24 07:52:41;;;;;;;22.70;16.40;;;;;;;;;;4991496;28;93658;-72
2022/08/24 07:55:08;;;;;;;19.90;14.77;;;;;;;;;;4990856;28;94496;-72
2022/08/24 07:57:38;;;;;;;18.95;14.80;;;;;;;;;;4988412;28;95405;-72
2022/08/24 08:00:07;;;;;;;26.38;18.63;;;;;;;;;;4995153;28;92995;-72
2022/08/24 08:02:45;;;;;;;23.98;18.45;;;;;;;;;;4996271;28;91826;-72
2022/08/24 08:05:14;;;;;;;27.38;18.00;;;;;;;;;;5023173;27;95258;-72
2022/08/24 08:07:46;;;;;;;24.10;16.90;;;;;;;;;;4987371;28;92801;-72
2022/08/24 08:10:18;;;;;;;21.90;15.90;;;;;;;;;;4993691;28;98077;-72
2022/08/24 08:12:44;;;;;;;21.77;15.52;;;;;;;;;;4993010;28;93920;-72
2022/08/24 08:15:11;;;;;;;24.83;16.17;;;;;;;;;;4994116;28;95885;-72
2022/08/24 08:17:51;;;;;;;31.70;16.00;;;;;;;;;;4994940;28;94682;-72
2022/08/24 08:20:21;;;;;;;20.60;14.13;;;;;;;;;;4989231;28;92651;-72
2022/08/24 08:25:51;;;;;;;;;;;;;;;;;;4993152;28;95644;-72
2022/08/24 08:28:25;;;;;;;15.07;11.82;;;;;;;;;;5034793;27;92290;-72
2022/08/24 08:31:02;;;;;;;13.80;11.02;;;;;;;;;;5019710;28;94742;-71
2022/08/24 08:33:29;;;;;;;16.88;13.75;;;;;;;;;;5000391;28;92500;-72
2022/08/24 08:36:01;;;;;;;29.77;14.77;;;;;;;;;;4993214;28;95879;-72
2022/08/24 08:38:28;;;;;;;18.73;14.35;;;;;;;;;;4997468;28;92946;-72
2022/08/24 08:41:07;;;;;;;22.42;13.52;;;;;;;;;;4994253;28;92526;-72
2022/08/24 08:43:42;;;;;;;21.70;14.43;;;;;;;;;;4994643;28;94059;-72
2022/08/24 08:46:15;;;;;;;18.95;13.07;;;;;;;;;;5002294;28;92948;-72
2022/08/24 08:49:01;;;;;;;;;;;;;;;;;;4995643;28;92552;-72
2022/08/24 08:51:50;;;;;;;14.65;12.13;;;;;;;;;;4999493;28;92615;-72
2022/08/24 08:54:26;;;;;;;13.98;10.43;;;;;;;;;;4989485;28;91761;-72
2022/08/24 08:57:03;;;;;;;12.40;9.55;;;;;;;;;;4995083;28;94492;-73
2022/08/24 08:59:35;;;;;;;15.20;11.02;;;;;;;;;;4990753;28;93324;-72
2022/08/24 09:02:14;;;;;;;12.35;9.10;;;;;;;;;;4991302;28;95430;-72
2022/08/24 09:04:53;;;;;;;13.90;8.73;;;;;;;;;;4994708;28;97494;-73
2022/08/24 09:07:22;;;;;;;16.38;11.13;;;;;;;;;;4995486;28;95789;-72
2022/08/24 09:10:08;;;;;;;11.10;9.27;;;;;;;;;;4991622;28;92519;-72
2022/08/24 09:12:58;;;;;;;12.38;8.82;;;;;;;;;;4993801;28;93077;-72
2022/08/24 09:15:31;;;;;;;12.48;6.45;;;;;;;;;;5001717;28;93158;-72
2022/08/24 09:18:17;;;;;;;16.73;7.22;;;;;;;;;;4995087;28;92998;-74
2022/08/24 09:20:51;;;;;;;10.07;6.38;;;;;;;;;;4997060;28;92475;-72
2022/08/24 09:23:26;;;;;;;6.47;4.30;;;;;;;;;;4994882;28;92485;-72
2022/08/24 09:26:17;;;;;;;6.15;4.28;;;;;;;;;;4995033;28;94294;-72
2022/08/24 09:28:51;;;;;;;7.57;5.35;;;;;;;;;;5003699;28;95995;-72
2022/08/24 09:31:33;;;;;;;9.93;4.18;;;;;;;;;;4999685;28;92783;-73
2022/08/24 09:34:12;;;;;;;4.85;3.80;;;;;;;;;;4995378;28;94018;-72
2022/08/24 09:36:53;;;;;;;4.93;4.15;;;;;;;;;;4993586;28;93628;-72
2022/08/24 09:39:34;;;;;;;3.92;3.63;;;;;;;;;;5015670;28;92448;-72
2022/08/24 09:42:14;;;;;;;6.95;3.38;;;;;;;;;;4994176;28;94218;-72
2022/08/24 09:44:43;;;;;;;7.40;2.58;;;;;;;;;;4993253;28;92603;-72
2022/08/24 09:47:22;;;;;;;3.60;1.80;;;;;;;;;;4996106;28;93126;-72
2022/08/24 09:49:58;;;;;;;3.25;2.38;;;;;;;;;;4957929;28;1121812;-72
2022/08/24 09:52:43;;;;;;;2.30;2.10;;;;;;;;;;4994804;28;92454;-72
2022/08/24 09:55:12;;;;;;;4.72;2.33;;;;;;;;;;4995225;28;94945;-72
2022/08/24 09:57:47;;;;;;;3.55;2.00;;;;;;;;;;4997053;28;93735;-72
2022/08/24 10:00:43;;;;;;;5.75;2.00;;;;;;;;;;4998126;28;92512;-72
2022/08/24 10:03:23;;;;;;;8.57;1.70;;;;;;;;;;5002749;28;93266;-72
2022/08/24 10:06:10;;;;;;;1.67;1.58;;;;;;;;;;4991661;28;92483;-72
2022/08/24 10:08:42;;;;;;;3.40;2.00;;;;;;;;;;4995979;28;93282;-72
2022/08/24 10:11:09;;;;;;;;;;;;;;;;;;4996174;28;93597;-71
2022/08/24 10:13:47;;;;;;;5.88;1.77;;;;;;;;;;4993861;28;118992;-72
2022/08/24 10:16:33;;;;;;;1.48;1.38;;;;;;;;;;4994276;28;92737;-72
2022/08/24 10:19:14;;;;;;;1.73;1.30;;;;;;;;;;4988439;28;93220;-72
2022/08/24 10:21:48;;;;;;;4.70;1.50;;;;;;;;;;4993122;28;94891;-72
2022/08/24 10:24:14;;;;;;;4.57;1.80;;;;;;;;;;4997157;28;95553;-72
2022/08/24 10:26:46;;;;;;;1.73;1.60;;;;;;;;;;4992719;28;92554;-72
2022/08/24 10:29:38;;;;;;;2.83;1.50;;;;;;;;;;4993236;28;93967;-72
2022/08/24 10:32:23;;;;;;;3.53;1.30;;;;;;;;;;4987664;28;93878;-72
2022/08/24 10:35:00;;;;;;;1.58;1.48;;;;;;;;;;4992755;28;92963;-72
2022/08/24 10:37:42;;;;;;;7.80;2.05;;;;;;;;;;4994933;28;93884;-72
2022/08/24 10:40:09;;;;;;;3.03;1.50;;;;;;;;;;4995304;28;93709;-72
2022/08/24 10:45:42;;;;;;;4.85;1.27;;;;;;;;;;4993830;28;93083;-72
2022/08/24 10:48:29;;;;;;;4.40;2.42;;;;;;;;;;4995843;28;96765;-72
2022/08/24 10:51:19;;;;;;;1.80;0.88;;;;;;;;;;4994952;28;95277;-72
2022/08/24 10:53:47;;;;;;;1.85;1.08;;;;;;;;;;4988755;28;93333;-72
2022/08/24 10:56:15;;;;;;;4.88;1.60;;;;;;;;;;5024760;27;92606;-72
2022/08/24 10:58:53;;;;;;;1.98;1.20;;;;;;;;;;4992456;28;92433;-72
2022/08/24 11:01:19;;;;;;;1.67;1.30;;;;;;;;;;4992692;28;93322;-72
2022/08/24 11:03:48;;;;;;;3.03;1.00;;;;;;;;;;4994974;28;92542;-72
2022/08/24 11:06:16;;;;;;;1.35;1.15;;;;;;;;;;4993544;28;93269;-71
2022/08/24 11:08:56;;;;;;;8.68;6.93;;;;;;;;;;4993716;28;94300;-71
2022/08/24 11:11:27;;;;;;;3.00;1.35;;;;;;;;;;4997713;28;92420;-72
2022/08/24 11:13:57;;;;;;;9.63;2.33;;;;;;;;;;4986287;28;95822;-72
2022/08/24 11:16:32;;;;;;;3.22;1.52;;;;;;;;;;4993535;28;92630;-71
2022/08/24 11:19:00;;;;;;;10.85;5.70;;;;;;;;;;4992637;28;93109;-72
2022/08/24 11:21:38;;;;;;;5.60;2.55;;;;;;;;;;4994285;28;94213;-72
2022/08/24 11:24:19;;;;;;;5.82;2.85;;;;;;;;;;4987535;28;94234;-72
2022/08/24 11:26:49;;;;;;;0.80;0.77;;;;;;;;;;4992998;28;93506;-72
2022/08/24 11:29:19;;;;;;;1.33;1.23;;;;;;;;;;4992280;28;94209;-72
2022/08/24 11:31:48;;;;;;;3.20;0.90;;;;;;;;;;4989171;28;91735;-72
2022/08/24 11:34:35;;;;;;;5.80;1.48;;;;;;;;;;4992261;28;93139;-72
2022/08/24 11:37:03;;;;;;;3.08;1.35;;;;;;;;;;4993879;28;92464;-73
2022/08/24 11:39:32;;;;;;;6.45;1.30;;;;;;;;;;4983664;28;95113;-72
2022/08/24 11:41:59;;;;;;;10.82;1.75;;;;;;;;;;4990818;28;93181;-72
2022/08/24 11:44:37;;;;;;;2.08;1.45;;;;;;;;;;4992301;28;92631;-72
2022/08/24 11:47:12;;;;;;;3.13;1.23;;;;;;;;;;4994314;28;93380;-72
2022/08/24 11:49:58;;;;;;;1.80;1.27;;;;;;;;;;4988543;28;94181;-72
2022/08/24 11:52:44;;;;;;;6.65;1.30;;;;;;;;;;4992927;28;92558;-72
2022/08/24 11:55:19;;;;;;;5.32;1.50;;;;;;;;;;4992312;28;93000;-72
2022/08/24 11:57:57;;;;;;;7.25;1.80;;;;;;;;;;4987219;28;92449;-72
2022/08/24 12:00:29;;;;;;;11.20;1.60;;;;;;;;;;4992522;28;93219;-72
2022/08/24 12:03:15;;;;;;;4.28;1.52;;;;;;;;;;4992627;28;94193;-72
2022/08/24 12:05:47;;;;;;;4.75;1.58;;;;;;;;;;4989664;28;95557;-72
2022/08/24 12:08:13;;;;;;;;;;;;;;;;;;4994705;28;96357;-72
2022/08/24 12:11:08;;;;;;;1.98;0.93;;;;;;;;;;4994219;28;123975;-72
2022/08/24 12:13:37;;;;;;;3.50;1.20;;;;;;;;;;4988000;28;92392;-72
2022/08/24 12:16:11;;;;;;;6.82;1.10;;;;;;;;;;4993784;28;92963;-72
2022/08/24 12:18:56;;;;;;;1.42;1.17;;;;;;;;;;4988944;28;93307;-72
2022/08/24 12:21:33;;;;;;;1.00;1.00;;;;;;;;;;4986867;28;93148;-72
2022/08/24 12:24:04;;;;;;;0.93;0.90;;;;;;;;;;4993453;28;92892;-72
2022/08/24 12:26:42;;;;;;;6.20;1.10;;;;;;;;;;4985392;28;92500;-72
2022/08/24 12:29:11;;;;;;;2.25;1.05;;;;;;;;;;4994084;28;92451;-72
2022/08/24 12:31:46;;;;;;;3.58;0.98;;;;;;;;;;4990462;28;95824;-72
2022/08/24 12:34:33;;;;;;;1.30;0.90;;;;;;;;;;4993421;28;92643;-72
2022/08/24 12:37:05;;;;;;;2.58;0.95;;;;;;;;;;4976915;28;92869;-72
2022/08/24 12:39:45;;;;;;;6.03;0.90;;;;;;;;;;4986582;28;94059;-72
2022/08/24 12:42:15;;;;;;;2.25;1.40;;;;;;;;;;5000038;28;92493;-72
2022/08/24 12:45:03;;;;;;;3.42;1.55;;;;;;;;;;4995441;28;93091;-72
2022/08/24 12:47:34;;;;;;;2.50;1.40;;;;;;;;;;4992226;28;94063;-73
2022/08/24 12:50:04;;;;;;;3.95;1.02;;;;;;;;;;4988506;28;94126;-72
2022/08/24 12:52:51;;;;;;;1.40;1.30;;;;;;;;;;4996806;28;94083;-72
2022/08/24 12:55:23;;;;;;;2.90;1.88;;;;;;;;;;4996165;28;92443;-72
2022/08/24 12:58:07;;;;;;;1.33;1.23;;;;;;;;;;4994866;28;95470;-72
2022/08/24 13:00:54;;;;;;;1.40;1.10;;;;;;;;;;4993545;28;94892;-72
2022/08/24 13:03:29;;;;;;;1.65;1.08;;;;;;;;;;4995292;28;92512;-72
2022/08/24 13:05:57;;;;;;;5.35;1.13;;;;;;;;;;4999156;28;93917;-73
2022/08/24 13:08:37;;;;;;;1.15;1.05;;;;;;;;;;4996127;28;92544;-72
2022/08/24 13:11:06;;;;;;;4.30;1.13;;;;;;;;;;4990822;28;93893;-72
2022/08/24 13:13:58;;;;;;;1.40;1.10;;;;;;;;;;4996419;28;94281;-72
2022/08/24 13:16:43;;;;;;;3.88;1.30;;;;;;;;;;4982625;28;92021;-72
2022/08/24 13:19:13;;;;;;;1.42;1.00;;;;;;;;;;4992449;28;93203;-72
2022/08/24 13:21:41;;;;;;;1.05;0.98;;;;;;;;;;4995198;28;94140;-72
2022/08/24 13:24:26;;;;;;;4.25;1.10;;;;;;;;;;4993171;28;94947;-72
2022/08/24 13:27:10;;;;;;;1.23;0.90;;;;;;;;;;4986365;28;96496;-73
2022/08/24 13:29:38;;;;;;;4.22;1.00;;;;;;;;;;4993185;28;93492;-72
2022/08/24 13:32:05;;;;;;;1.65;1.42;;;;;;;;;;5022450;27;95644;-72
2022/08/24 13:34:37;;;;;;;4.22;1.55;;;;;;;;;;4996154;28;94175;-72
2022/08/24 13:37:13;;;;;;;1.58;1.08;;;;;;;;;;4989251;28;92462;-72
2022/08/24 13:39:53;;;;;;;11.27;1.00;;;;;;;;;;4985163;28;93707;-72
2022/08/24 13:42:37;;;;;;;3.00;0.82;;;;;;;;;;4996675;28;93345;-72
2022/08/24 13:45:23;;;;;;;4.25;1.02;;;;;;;;;;4990805;28;92480;-72
2022/08/24 13:48:02;;;;;;;3.00;1.70;;;;;;;;;;4995810;28;93185;-72
2022/08/24 13:50:33;;;;;;;1.70;1.13;;;;;;;;;;4997364;28;95666;-73
2022/08/24 13:53:36;;;;;;;2.05;1.10;;;;;;;;;;4992558;28;92585;-72
2022/08/24 13:56:35;;;;;;;3.63;1.10;;;;;;;;;;4993554;28;94347;-72
2022/08/24 13:59:07;;;;;;;3.13;1.08;;;;;;;;;;4978717;28;92713;-72
2022/08/24 14:01:54;;;;;;;3.40;0.70;;;;;;;;;;4996391;28;93776;-72
2022/08/24 14:04:23;;;;;;;1.33;0.90;;;;;;;;;;4986196;28;94081;-72
2022/08/24 14:06:56;;;;;;;3.75;0.90;;;;;;;;;;4995570;28;92486;-72
2022/08/24 14:09:42;;;;;;;3.53;1.25;;;;;;;;;;4989106;28;93867;-72
2022/08/24 14:12:08;;;;;;;5.15;1.15;;;;;;;;;;4995004;28;95186;-72
2022/08/24 14:14:45;;;;;;;4.68;0.90;;;;;;;;;;4995800;28;92628;-72
2022/08/24 14:20:40;;;;;;;1.38;1.27;;;;;;;;;;4993988;28;92413;-72
2022/08/24 14:23:25;;;;;;;1.27;1.15;;;;;;;;;;4994439;28;94353;-72
2022/08/24 14:26:11;;;;;;;3.75;0.93;;;;;;;;;;4985010;28;94367;-72
2022/08/24 14:28:41;;;;;;;4.32;1.42;;;;;;;;;;4988384;28;92573;-72
2022/08/24 14:31:21;;;;;;;2.15;1.85;;;;;;;;;;4988434;28;93850;-72
2022/08/24 14:34:01;;;;;;;2.65;1.17;;;;;;;;;;4987729;28;93672;-72
2022/08/24 14:36:39;;;;;;;2.80;0.95;;;;;;;;;;4994092;28;91655;-72
2022/08/24 14:39:19;;;;;;;2.92;1.10;;;;;;;;;;4997643;28;93396;-72
2022/08/24 14:41:51;;;;;;;3.97;1.30;;;;;;;;;;4988811;28;92728;-72
2022/08/24 14:44:18;;;;;;;;;;;;;;;;;;4987781;28;94810;-72
2022/08/24 14:47:00;;;;;;;2.20;0.95;;;;;;;;;;4985935;28;124456;-72
2022/08/24 14:49:37;;;;;;;1.38;1.10;;;;;;;;;;4987428;28;92459;-72
2022/08/24 14:52:09;;;;;;;2.60;1.55;;;;;;;;;;4988984;28;94197;-72
2022/08/24 14:54:58;;;;;;;3.90;1.20;;;;;;;;;;4992505;28;94116;-72
2022/08/24 14:57:46;;;;;;;4.20;1.10;;;;;;;;;;4994756;28;92592;-72
2022/08/24 15:00:13;;;;;;;1.50;1.10;;;;;;;;;;4992648;28;94041;-72
2022/08/24 15:02:44;;;;;;;2.25;1.20;;;;;;;;;;4994710;28;94397;-71
2022/08/24 15:05:22;;;;;;;3.60;1.20;;;;;;;;;;4990895;28;92716;-72
2022/08/24 15:07:56;;;;;;;1.52;1.20;;;;;;;;;;4993670;28;94403;-72
2022/08/24 15:10:27;;;;;;;1.63;1.48;;;;;;;;;;4992238;28;94856;-72
2022/08/24 15:12:57;;;;;;;7.72;1.35;;;;;;;;;;4994772;28;95234;-72